Time;durP1;ratioP1;P1;durP2;ratioP2;P2;SDS_P1;SDS_P2;PMS_P1;PMS_P2;Temp;Humidity;BMP_temperature;BMP_pressure;BME280_temperature;BME280_humidity;BME280_pressure;Samples;Min_cycle;Max_cycle;Signal;HPM_P1;HPM_P2
2021/03/06 00:00:12;;;;;;;11.20;2.75;;;;;;;4.86;44.61;101532.91;5033571;28;20484;-84
2021/03/06 00:02:38;;;;;;;6.85;1.50;;;;;;;4.87;44.22;101533.78;5084760;22;20056;-84
2021/03/06 00:05:06;;;;;;;4.70;1.70;;;;;;;4.86;44.30;101534.66;5054475;28;20049;-85
2021/03/06 00:07:33;;;;;;;2.13;1.50;;;;;;;4.85;44.08;101532.94;5034728;28;20049;-85
2021/03/06 00:09:59;;;;;;;5.60;1.50;;;;;;;4.81;43.77;101540.75;5034436;28;20073;-85
2021/03/06 00:12:25;;;;;;;4.90;1.77;;;;;;;4.79;44.28;101537.28;5044264;28;20045;-85
2021/03/06 00:14:51;;;;;;;2.67;1.23;;;;;;;4.77;44.54;101541.66;5052842;28;20491;-84
2021/03/06 00:17:17;;;;;;;7.50;1.58;;;;;;;4.76;44.42;101547.75;5053519;28;20052;-84
2021/03/06 00:19:44;;;;;;;7.07;1.50;;;;;;;4.75;44.26;101553.81;5054451;28;20075;-84
2021/03/06 00:22:10;;;;;;;8.77;1.60;;;;;;;4.73;44.41;101542.53;5053909;28;20048;-84
2021/03/06 00:24:36;;;;;;;5.20;1.88;;;;;;;4.72;44.51;101550.34;5052878;28;20052;-84
2021/03/06 00:27:02;;;;;;;5.60;1.60;;;;;;;4.69;44.59;101543.41;5053465;28;20056;-85
2021/03/06 00:29:28;;;;;;;6.32;1.45;;;;;;;4.67;44.46;101548.63;5054253;28;20048;-85
2021/03/06 00:31:54;;;;;;;6.30;1.70;;;;;;;4.66;44.42;101543.41;5053990;28;20060;-85
2021/03/06 00:34:21;;;;;;;4.05;1.23;;;;;;;4.64;44.56;101553.00;5046805;28;20072;-85
2021/03/06 00:36:47;;;;;;;5.68;1.58;;;;;;;4.62;44.72;101552.13;5050975;28;20049;-85
2021/03/06 00:39:13;;;;;;;4.22;1.50;;;;;;;4.60;44.80;101551.28;5053738;28;20045;-85
2021/03/06 00:41:39;;;;;;;8.25;1.85;;;;;;;4.58;45.07;101543.44;5052867;28;20052;-84
2021/03/06 00:44:05;;;;;;;5.50;1.38;;;;;;;4.57;44.97;101537.34;5053700;28;20049;-85
2021/03/06 00:46:31;;;;;;;7.22;1.60;;;;;;;4.56;44.65;101535.63;5053686;28;20048;-85
2021/03/06 00:48:58;;;;;;;6.15;1.52;;;;;;;4.57;45.20;101534.75;5038534;28;20137;-84
2021/03/06 00:51:24;;;;;;;10.45;1.58;;;;;;;4.56;44.97;101539.97;5033776;28;20049;-85
2021/03/06 00:54:05;;;;;;;6.15;1.58;;;;;;;4.56;45.07;101538.22;5032369;28;20495;-84
2021/03/06 00:56:31;;;;;;;6.88;1.70;;;;;;;4.55;44.89;101538.22;5032367;28;20060;-85
2021/03/06 00:58:57;;;;;;;6.15;1.30;;;;;;;4.54;44.96;101537.38;5033902;28;20422;-85
2021/03/06 01:01:23;;;;;;;7.07;1.27;;;;;;;4.53;45.57;101530.41;5038314;28;20052;-85
2021/03/06 01:03:49;;;;;;;5.55;1.20;;;;;;;4.54;45.48;101534.78;5070360;28;20087;-84
2021/03/06 01:06:15;;;;;;;4.70;1.27;;;;;;;4.52;45.23;101530.44;5073876;28;20049;-84
2021/03/06 01:08:41;;;;;;;3.90;1.45;;;;;;;4.51;45.43;101524.34;5073654;28;20051;-85
2021/03/06 01:11:07;;;;;;;4.45;1.38;;;;;;;4.50;45.51;101530.44;5073272;28;20510;-85
2021/03/06 01:13:33;;;;;;;7.45;1.73;;;;;;;4.49;45.40;101533.91;5073425;28;20044;-85
2021/03/06 01:15:59;;;;;;;10.63;1.65;;;;;;;4.48;45.42;101526.94;5059745;28;20053;-84
2021/03/06 01:18:25;;;;;;;5.90;1.77;;;;;;;4.46;45.75;101526.09;5053152;28;20052;-85
2021/03/06 01:20:52;;;;;;;3.92;1.20;;;;;;;4.45;45.59;101518.28;5053376;28;20045;-84
2021/03/06 01:23:20;;;;;;;6.65;1.60;;;;;;;4.44;45.55;101517.41;5054364;28;20120;-84
2021/03/06 01:25:46;;;;;;;5.20;1.08;;;;;;;4.43;45.47;101515.66;5055546;28;20064;-85
2021/03/06 01:28:12;;;;;;;7.05;1.40;;;;;;;4.42;45.48;101517.41;5073917;28;20076;-85
2021/03/06 01:30:39;;;;;;;2.80;1.08;;;;;;;4.42;45.77;101519.16;5061951;28;20498;-85
2021/03/06 01:33:05;;;;;;;2.45;0.90;;;;;;;4.40;45.70;101510.47;5080215;28;20041;-85
2021/03/06 01:35:32;;;;;;;2.78;1.15;;;;;;;4.40;45.90;101513.06;5079858;28;20135;-85
2021/03/06 01:37:58;;;;;;;4.85;1.20;;;;;;;4.39;46.01;101513.94;5078162;28;20068;-84
2021/03/06 01:40:28;;;;;;;7.82;1.45;;;;;;;4.38;46.42;101510.47;5060055;28;20041;-84
2021/03/06 01:42:56;;;;;;;6.22;1.30;;;;;;;4.37;46.42;101500.06;5059824;28;20407;-84
2021/03/06 01:45:22;;;;;;;4.25;1.00;;;;;;;4.37;46.26;101505.28;5059474;28;20052;-84
2021/03/06 01:47:49;;;;;;;5.15;1.00;;;;;;;4.36;46.16;101506.13;5059902;28;20059;-84
2021/03/06 01:50:25;;;;;;;5.30;1.40;;;;;;;4.34;46.67;101500.06;5059704;28;20051;-85
2021/03/06 01:52:52;;;;;;;4.53;1.15;;;;;;;4.34;46.19;101500.06;5078267;28;20044;-85
2021/03/06 01:55:22;;;;;;;6.93;1.50;;;;;;;4.33;47.07;101500.94;5079778;28;20056;-85
2021/03/06 01:57:48;;;;;;;5.82;1.30;;;;;;;4.34;46.23;101502.66;5062075;28;20053;-85
2021/03/06 02:00:26;;;;;;;9.27;1.17;;;;;;;4.33;46.25;101496.56;5063739;28;20049;-85
2021/03/06 02:02:52;;;;;;;2.92;0.93;;;;;;;4.31;46.52;101495.72;5079646;28;20044;-85
2021/03/06 02:05:19;;;;;;;6.40;1.05;;;;;;;4.29;46.27;101498.34;5071921;28;20128;-85
2021/03/06 02:07:46;;;;;;;6.63;1.23;;;;;;;4.27;46.44;101500.06;5059986;28;20053;-84
2021/03/06 02:10:14;;;;;;;5.97;1.33;;;;;;;4.24;46.59;101500.09;5059705;28;20095;-85
2021/03/06 02:13:10;;;;;;;6.82;1.60;;;;;;;4.19;47.14;101499.25;5059842;28;20045;-84
2021/03/06 02:15:46;;;;;;;4.38;1.10;;;;;;;4.20;46.94;101502.69;5042492;28;20049;-85
2021/03/06 02:18:30;;;;;;;6.47;1.33;;;;;;;4.13;47.73;101502.72;5059892;28;20055;-85
2021/03/06 02:21:19;;;;;;;5.22;0.98;;;;;;;4.13;47.69;101502.72;5078988;28;20056;-85
2021/03/06 02:24:07;;;;;;;7.38;1.20;;;;;;;4.10;47.49;101505.31;5061877;28;20045;-84
2021/03/06 02:26:45;;;;;;;4.90;1.27;;;;;;;4.07;47.69;101507.06;5061911;28;20048;-84
2021/03/06 02:29:35;;;;;;;4.13;0.93;;;;;;;4.03;47.73;101501.84;5061565;28;20490;-84
2021/03/06 02:32:09;;;;;;;6.47;1.65;;;;;;;4.02;47.80;101505.34;5077706;28;20051;-85
2021/03/06 02:34:38;;;;;;;2.55;1.20;;;;;;;4.01;47.21;101502.72;5059064;28;20056;-84
2021/03/06 02:37:06;;;;;;;8.30;1.60;;;;;;;3.98;47.07;101511.41;5059460;28;20094;-85
2021/03/06 02:39:35;;;;;;;4.78;1.00;;;;;;;3.96;47.06;101510.53;5059297;28;20053;-84
2021/03/06 02:42:05;;;;;;;2.78;1.08;;;;;;;3.92;47.53;101495.78;5055761;28;20060;-84
2021/03/06 02:44:34;;;;;;;7.15;1.70;;;;;;;3.89;47.82;101499.25;5055742;28;20514;-84
2021/03/06 02:47:01;;;;;;;7.15;1.13;;;;;;;3.87;47.54;101500.13;5067798;28;20506;-84
2021/03/06 02:49:28;;;;;;;3.58;1.10;;;;;;;3.83;47.29;101503.59;5058081;28;20556;-84
2021/03/06 02:51:56;;;;;;;4.43;1.30;;;;;;;3.80;47.54;101506.22;5055979;28;20099;-84
2021/03/06 02:54:22;;;;;;;8.00;0.93;;;;;;;3.75;47.54;101504.50;5055808;28;20056;-84
2021/03/06 02:56:49;;;;;;;11.25;1.40;;;;;;;3.71;47.70;101505.38;5038659;28;20057;-84
2021/03/06 02:59:39;;;;;;;10.00;1.48;;;;;;;3.68;48.29;101507.97;5056245;28;20522;-84
2021/03/06 03:02:30;;;;;;;6.55;1.38;;;;;;;3.64;49.11;101501.03;5056332;28;20048;-84
2021/03/06 03:05:08;;;;;;;3.53;1.20;;;;;;;3.63;48.75;101504.50;5044706;28;20048;-84
2021/03/06 03:08:05;;;;;;;6.97;1.60;;;;;;;3.58;49.37;101498.41;5059146;28;20049;-85
2021/03/06 03:10:35;;;;;;;3.80;1.10;;;;;;;3.59;48.35;101498.41;5070782;28;20049;-84
2021/03/06 03:13:42;;;;;;;4.07;1.02;;;;;;;3.56;49.18;101492.34;5075616;28;20388;-85
2021/03/06 03:16:34;;;;;;;8.35;1.27;;;;;;;3.54;49.45;101494.09;4990139;28;20497;-84
2021/03/06 03:19:12;;;;;;;4.70;0.95;;;;;;;3.55;49.48;101493.22;5060341;28;20049;-84
2021/03/06 03:21:46;;;;;;;6.72;1.45;;;;;;;3.56;49.60;101494.94;5075556;28;20071;-84
2021/03/06 03:24:17;;;;;;;7.70;1.20;;;;;;;3.56;49.04;101495.81;5072909;28;20513;-84
2021/03/06 03:26:44;;;;;;;5.53;1.45;;;;;;;3.58;48.77;101501.88;5055189;28;20056;-84
2021/03/06 03:29:13;;;;;;;5.30;1.10;;;;;;;3.57;49.94;101494.06;5055551;28;20044;-84
2021/03/06 03:31:43;;;;;;;7.35;1.58;;;;;;;3.60;49.01;101492.34;5055537;28;20053;-85
2021/03/06 03:34:10;;;;;;;5.32;1.50;;;;;;;3.60;49.11;101497.56;5038623;28;20049;-84
2021/03/06 03:36:38;;;;;;;10.13;1.42;;;;;;;3.61;49.18;101488.88;5057546;28;20056;-84
2021/03/06 03:39:05;;;;;;;4.38;0.98;;;;;;;3.64;49.57;101493.22;5075190;28;20052;-84
2021/03/06 03:41:32;;;;;;;6.72;1.35;;;;;;;3.65;49.46;101501.03;5074863;28;20049;-85
2021/03/06 03:44:02;;;;;;;5.85;1.77;;;;;;;3.65;49.85;101485.41;5074608;28;20464;-85
2021/03/06 03:46:31;;;;;;;5.47;1.55;;;;;;;3.68;50.25;101496.66;5073373;28;20050;-84
2021/03/06 03:48:58;;;;;;;6.95;0.98;;;;;;;3.69;49.75;101499.28;5056187;28;20056;-84
2021/03/06 03:51:24;;;;;;;11.95;2.00;;;;;;;3.69;49.45;101496.66;5073817;28;20169;-85
2021/03/06 03:53:52;;;;;;;11.32;1.58;;;;;;;3.71;49.76;101488.84;5072130;28;20052;-84
2021/03/06 03:56:25;;;;;;;2.58;1.30;;;;;;;3.72;49.39;101488.88;5057935;28;20070;-84
2021/03/06 03:58:52;;;;;;;5.75;1.15;;;;;;;3.72;49.44;101485.38;5074808;28;20052;-84
2021/03/06 04:01:18;;;;;;;7.32;1.70;;;;;;;3.73;49.56;101489.72;5056931;28;20048;-84
2021/03/06 04:03:44;;;;;;;5.63;1.58;;;;;;;3.74;49.78;101492.31;5054877;28;20057;-84
2021/03/06 04:06:10;;;;;;;10.80;1.20;;;;;;;3.75;49.87;101486.25;5050619;28;20135;-84
2021/03/06 04:08:37;;;;;;;8.75;1.65;;;;;;;3.77;49.71;101497.53;5074321;28;20553;-84
2021/03/06 04:11:03;;;;;;;5.32;1.20;;;;;;;3.81;49.90;101492.34;5074272;28;20056;-85
2021/03/06 04:13:29;;;;;;;5.40;1.45;;;;;;;3.82;50.05;101494.06;5039485;28;20454;-85
2021/03/06 04:15:56;;;;;;;5.88;1.10;;;;;;;3.85;50.01;101491.47;5054017;28;20057;-84
2021/03/06 04:18:22;;;;;;;7.03;1.40;;;;;;;3.87;50.02;101500.13;5054496;28;20083;-84
2021/03/06 04:20:49;;;;;;;6.50;1.25;;;;;;;3.88;49.68;101496.66;5054454;28;20132;-84
2021/03/06 04:23:16;;;;;;;4.75;1.20;;;;;;;3.89;49.55;101498.41;5055348;28;20049;-84
2021/03/06 04:25:42;;;;;;;4.40;0.90;;;;;;;3.89;49.58;101508.84;5054101;28;20099;-84
2021/03/06 04:28:09;;;;;;;4.68;1.30;;;;;;;3.89;49.39;101503.63;5053982;28;20064;-84
2021/03/06 04:30:35;;;;;;;3.97;1.10;;;;;;;3.89;49.50;101504.47;5054155;28;20466;-85
2021/03/06 04:33:01;;;;;;;2.60;1.00;;;;;;;3.89;49.81;101504.47;5063845;28;20048;-85
2021/03/06 04:35:28;;;;;;;5.60;1.60;;;;;;;3.89;49.67;101511.44;5072981;28;20080;-84
2021/03/06 04:37:54;;;;;;;8.98;1.25;;;;;;;3.88;49.65;101510.56;5073772;28;20048;-84
2021/03/06 04:40:20;;;;;;;7.00;1.50;;;;;;;3.87;49.59;101510.56;5073995;28;20059;-85
2021/03/06 04:42:46;;;;;;;5.18;1.20;;;;;;;3.88;49.89;101512.28;5045254;28;20415;-84
2021/03/06 04:45:13;;;;;;;5.22;1.25;;;;;;;3.87;50.03;101508.81;5053807;28;20056;-84
2021/03/06 04:47:45;;;;;;;5.47;1.13;;;;;;;3.87;49.91;101508.81;5053557;28;20048;-84
2021/03/06 04:50:13;;;;;;;4.05;1.35;;;;;;;3.86;50.08;101522.72;5053695;28;20487;-84
2021/03/06 04:52:40;;;;;;;5.80;1.38;;;;;;;3.87;49.80;101520.97;5057827;28;20045;-84
2021/03/06 04:55:06;;;;;;;6.88;1.50;;;;;;;3.87;49.61;101519.25;5056539;28;20053;-84
2021/03/06 04:57:33;;;;;;;6.20;1.38;;;;;;;3.88;49.60;101520.09;5053781;28;20060;-84
2021/03/06 05:00:00;;;;;;;7.15;1.92;;;;;;;3.89;50.26;101522.72;5053983;28;20056;-84
2021/03/06 05:02:27;;;;;;;5.07;1.35;;;;;;;3.91;50.44;101526.19;5054998;28;20048;-84
2021/03/06 05:04:54;;;;;;;4.00;0.88;;;;;;;3.94;49.86;101533.13;5072313;28;20091;-84
2021/03/06 05:07:20;;;;;;;3.05;1.13;;;;;;;3.97;50.09;101525.34;5055512;28;20048;-84
2021/03/06 05:09:46;;;;;;;5.57;1.30;;;;;;;4.01;50.10;101526.19;5055821;28;20051;-84
2021/03/06 05:12:12;;;;;;;4.75;1.23;;;;;;;4.03;50.17;101524.44;5073465;28;20045;-85
2021/03/06 05:14:38;;;;;;;3.92;1.15;;;;;;;4.08;49.86;101524.44;5053672;28;20689;-85
2021/03/06 05:17:04;;;;;;;5.68;1.50;;;;;;;4.13;50.43;101534.00;5053909;28;20098;-85
2021/03/06 05:19:31;;;;;;;7.60;1.30;;;;;;;4.17;50.05;101532.25;5035568;28;20507;-84
2021/03/06 05:21:57;;;;;;;4.88;1.40;;;;;;;4.22;50.30;101535.69;5053383;28;20049;-85
2021/03/06 05:24:23;;;;;;;7.28;1.25;;;;;;;4.27;50.44;101533.09;5050203;28;20048;-84
2021/03/06 05:27:01;;;;;;;4.50;1.35;;;;;;;4.33;50.36;101540.03;5054909;28;20045;-84
2021/03/06 05:29:32;;;;;;;5.57;1.77;;;;;;;4.39;50.25;101534.81;5053374;28;20060;-84
2021/03/06 05:31:59;;;;;;;5.05;1.42;;;;;;;4.45;49.99;101539.13;5053274;28;20049;-84
2021/03/06 05:34:26;;;;;;;5.68;1.10;;;;;;;4.48;49.95;101545.22;5051985;28;20048;-85
2021/03/06 05:36:52;;;;;;;8.50;1.27;;;;;;;4.52;50.03;101548.69;5073030;28;20059;-84
2021/03/06 05:39:18;;;;;;;3.10;1.23;;;;;;;4.54;49.79;101545.22;5073056;28;20490;-84
2021/03/06 05:41:45;;;;;;;4.95;1.00;;;;;;;4.57;49.92;101547.78;5073073;28;20052;-85
2021/03/06 05:44:13;;;;;;;3.33;1.02;;;;;;;4.58;49.81;101551.28;5057682;28;20048;-85
2021/03/06 05:46:41;;;;;;;5.03;1.20;;;;;;;4.57;49.91;101547.78;5053221;28;20059;-85
2021/03/06 05:49:08;;;;;;;3.20;1.20;;;;;;;4.59;49.74;101544.31;5052882;28;20056;-85
2021/03/06 05:51:36;;;;;;;4.95;1.20;;;;;;;4.58;49.98;101546.06;5053179;28;20392;-85
2021/03/06 05:54:10;;;;;;;3.53;1.08;;;;;;;4.56;50.11;101548.66;5065527;28;20048;-84
2021/03/06 05:56:42;;;;;;;3.83;1.30;;;;;;;4.56;49.58;101551.28;5062494;28;20044;-84
2021/03/06 05:59:10;;;;;;;2.75;1.13;;;;;;;4.53;49.32;101551.28;5073122;28;20060;-85
2021/03/06 06:01:39;;;;;;;6.07;1.30;;;;;;;4.50;49.73;101551.31;5055283;28;20044;-84
2021/03/06 06:04:06;;;;;;;2.75;0.90;;;;;;;4.47;49.43;101548.69;5100486;22;20108;-83
2021/03/06 06:06:33;;;;;;;5.00;1.80;;;;;;;4.46;49.76;101556.50;5035948;28;20056;-85
2021/03/06 06:09:01;;;;;;;4.50;0.98;;;;;;;4.43;49.39;101555.66;5053505;28;20483;-85
2021/03/06 06:11:28;;;;;;;4.13;1.20;;;;;;;4.43;49.59;101560.00;5035990;28;20059;-85
2021/03/06 06:13:58;;;;;;;6.45;1.00;;;;;;;4.42;50.22;101550.44;5064282;28;20044;-86
2021/03/06 06:16:28;;;;;;;6.32;1.38;;;;;;;4.41;50.09;101544.34;5075204;28;20426;-86
2021/03/06 06:18:55;;;;;;;7.38;1.00;;;;;;;4.42;49.56;101550.44;5059034;28;20131;-86
2021/03/06 06:21:40;;;;;;;7.43;1.23;;;;;;;4.36;50.13;101543.50;5077365;28;20059;-86
2021/03/06 06:24:11;;;;;;;5.55;1.05;;;;;;;4.37;49.60;101542.63;5057948;28;20041;-86
2021/03/06 06:26:38;;;;;;;3.38;0.60;;;;;;;4.35;49.86;101544.38;5076495;28;20052;-86
2021/03/06 06:29:05;;;;;;;8.68;1.23;;;;;;;4.33;49.55;101540.03;5059013;28;20446;-86
2021/03/06 06:31:32;;;;;;;8.38;1.15;;;;;;;4.30;49.43;101541.78;5059254;28;20049;-86
2021/03/06 06:34:13;;;;;;;2.38;0.80;;;;;;;4.29;50.26;101541.78;5057733;28;20040;-86
2021/03/06 06:36:39;;;;;;;4.00;0.93;;;;;;;4.30;49.47;101533.09;5043719;28;20049;-86
2021/03/06 06:39:08;;;;;;;6.90;1.15;;;;;;;4.29;49.63;101545.25;5039175;28;20049;-86
2021/03/06 06:41:54;;;;;;;2.70;1.52;;;;;;;4.29;49.96;101539.16;5056736;28;20049;-87
2021/03/06 06:44:22;;;;;;;13.73;2.67;;;;;;;4.36;49.42;101545.22;5052424;28;20055;-86
2021/03/06 06:46:50;;;;;;;5.10;1.30;;;;;;;4.42;49.41;101540.03;5058974;28;20060;-86
2021/03/06 06:49:18;;;;;;;3.35;1.30;;;;;;;4.48;49.30;101549.56;5076446;28;20045;-87
2021/03/06 06:52:05;;;;;;;4.75;1.30;;;;;;;4.50;50.13;101550.41;5076300;28;20102;-87
2021/03/06 06:54:34;;;;;;;3.67;1.50;;;;;;;4.56;49.44;101551.28;5057010;28;20049;-87
2021/03/06 06:57:11;;;;;;;3.50;0.95;;;;;;;4.57;49.64;101553.00;5055529;28;20052;-87
2021/03/06 06:59:51;;;;;;;3.63;1.60;;;;;;;4.64;49.24;101555.59;5058102;28;20517;-87
2021/03/06 07:02:18;;;;;;;5.65;1.42;;;;;;;4.66;49.45;101553.84;5076104;28;20060;-87
2021/03/06 07:05:05;;;;;;;3.95;1.23;;;;;;;4.66;49.82;101559.06;5058331;28;20055;-87
2021/03/06 07:07:39;;;;;;;8.50;1.73;;;;;;;4.71;49.81;101557.31;5055830;28;20053;-87
2021/03/06 07:10:13;;;;;;;3.63;1.42;;;;;;;4.76;49.62;101558.19;5055968;28;20057;-86
2021/03/06 07:12:42;;;;;;;7.63;1.63;;;;;;;4.78;49.73;101558.16;5037893;28;20511;-86
2021/03/06 07:15:17;;;;;;;6.40;1.67;;;;;;;4.80;50.17;101562.50;5056254;28;20053;-87
2021/03/06 07:17:44;;;;;;;4.88;1.50;;;;;;;4.85;49.65;101565.09;5038396;28;20053;-87
2021/03/06 07:20:21;;;;;;;4.32;1.65;;;;;;;4.87;49.77;101563.34;5034813;28;20068;-87
2021/03/06 07:22:52;;;;;;;4.75;1.40;;;;;;;4.90;50.05;101563.31;5054889;28;20049;-86
2021/03/06 07:25:19;;;;;;;4.05;1.60;;;;;;;4.98;49.50;101572.88;5039543;28;20475;-86
2021/03/06 07:27:45;;;;;;;10.43;2.13;;;;;;;5.02;49.67;101565.03;5036772;28;20053;-86
2021/03/06 07:30:14;;;;;;;6.07;2.25;;;;;;;5.08;49.78;101572.81;5037502;28;20491;-86
2021/03/06 07:32:43;;;;;;;8.50;3.53;;;;;;;5.12;49.62;101568.44;5036987;28;20080;-86
2021/03/06 07:35:13;;;;;;;13.68;3.60;;;;;;;5.17;49.47;101574.53;5064634;28;20045;-86
2021/03/06 07:37:40;;;;;;;6.18;2.20;;;;;;;5.22;49.25;101572.75;5075223;28;20071;-86
2021/03/06 07:40:09;;;;;;;6.68;1.73;;;;;;;5.27;49.29;101584.94;5057286;28;20052;-87
2021/03/06 07:43:07;;;;;;;3.88;1.65;;;;;;;5.28;49.09;101579.72;5057153;28;20048;-87
2021/03/06 07:45:36;;;;;;;6.55;1.75;;;;;;;5.35;48.72;101583.16;5040456;28;20427;-87
2021/03/06 07:48:12;;;;;;;8.50;1.88;;;;;;;5.38;49.27;101579.66;5037204;28;20056;-87
2021/03/06 07:50:42;;;;;;;4.28;1.60;;;;;;;5.44;48.83;101582.22;5037209;28;20079;-86
2021/03/06 07:53:10;;;;;;;3.97;1.60;;;;;;;5.48;48.77;101579.59;5037121;28;20057;-86
2021/03/06 07:55:37;;;;;;;3.17;1.15;;;;;;;5.51;48.48;101578.69;5058773;28;20064;-87
2021/03/06 07:58:13;;;;;;;5.03;1.60;;;;;;;5.51;48.85;101573.47;5039161;28;20049;-87
2021/03/06 08:00:45;;;;;;;3.55;1.23;;;;;;;5.57;48.47;101581.25;5054018;28;20499;-87
2021/03/06 08:05:52;;;;;;;5.68;1.38;;;;;;;5.60;48.04;101575.13;5071542;28;20055;-87
2021/03/06 08:08:37;;;;;;;2.92;1.20;;;;;;;5.58;48.71;101577.75;5056452;28;20487;-85
2021/03/06 08:11:10;;;;;;;12.45;1.63;;;;;;;5.65;48.58;101577.72;5056589;28;20052;-87
2021/03/06 08:13:38;;;;;;;5.40;1.75;;;;;;;5.67;48.43;101575.97;5056481;28;20059;-87
2021/03/06 08:16:20;;;;;;;5.22;1.60;;;;;;;5.67;49.24;101581.19;5070159;28;20052;-85
2021/03/06 08:18:49;;;;;;;4.35;1.38;;;;;;;5.73;48.49;101579.41;5056565;28;20059;-87
2021/03/06 08:21:32;;;;;;;2.75;1.50;;;;;;;5.73;48.63;101571.56;5056113;28;20060;-87
2021/03/06 08:24:14;;;;;;;2.65;1.40;;;;;;;5.79;48.86;101575.88;5070941;28;20471;-84
2021/03/06 08:27:03;;;;;;;2.88;1.30;;;;;;;5.86;48.58;101576.69;5056299;28;20414;-87
2021/03/06 08:29:54;;;;;;;5.35;1.58;;;;;;;5.95;48.00;101579.22;5074160;28;20060;-87
2021/03/06 08:32:24;;;;;;;3.67;1.35;;;;;;;6.02;47.96;101576.59;5054391;28;20457;-87
2021/03/06 08:34:55;;;;;;;3.05;1.25;;;;;;;6.07;47.96;101586.16;5035637;28;20061;-87
2021/03/06 08:37:22;;;;;;;3.20;1.10;;;;;;;6.12;47.96;101588.72;5054127;28;20053;-87
2021/03/06 08:40:12;;;;;;;4.47;1.55;;;;;;;6.13;47.85;101595.66;5052629;28;20049;-88
2021/03/06 08:42:49;;;;;;;3.80;1.40;;;;;;;6.20;47.64;101591.28;5038966;28;20487;-84
2021/03/06 08:45:27;;;;;;;4.30;1.50;;;;;;;6.23;47.80;101597.34;5035914;28;20053;-87
2021/03/06 08:48:01;;;;;;;4.68;1.50;;;;;;;6.28;47.96;101601.66;5036286;28;20068;-87
2021/03/06 08:50:30;;;;;;;2.60;1.05;;;;;;;6.35;47.49;101598.97;5035830;28;20051;-87
2021/03/06 08:53:02;;;;;;;3.60;1.35;;;;;;;6.42;47.33;101598.94;5055959;28;20041;-84
2021/03/06 08:55:34;;;;;;;2.78;1.40;;;;;;;6.50;47.21;101603.19;5035204;28;20502;-85
2021/03/06 08:58:01;;;;;;;2.65;0.98;;;;;;;6.58;47.30;101605.72;5036023;28;20175;-85
2021/03/06 09:00:36;;;;;;;3.22;1.02;;;;;;;6.62;47.69;101599.56;5035499;28;20053;-87
2021/03/06 09:03:11;;;;;;;2.95;1.40;;;;;;;6.70;46.48;101606.47;5035595;28;20404;-85
2021/03/06 09:05:38;;;;;;;6.13;1.67;;;;;;;6.77;46.89;101603.75;5038864;28;20056;-84
2021/03/06 09:08:04;;;;;;;5.45;1.70;;;;;;;6.81;46.56;101607.25;5055373;28;20049;-87
2021/03/06 09:10:36;;;;;;;5.55;2.03;;;;;;;6.81;46.39;101614.22;5057000;28;20052;-85
2021/03/06 09:13:04;;;;;;;2.17;1.60;;;;;;;6.83;46.13;101607.19;5052348;28;20043;-85
2021/03/06 09:15:41;;;;;;;6.80;2.30;;;;;;;6.79;45.77;101609.00;5072778;28;20064;-85
2021/03/06 09:18:10;;;;;;;4.85;1.90;;;;;;;6.82;46.09;101610.69;5055811;28;20414;-84
2021/03/06 09:20:40;;;;;;;6.32;1.70;;;;;;;6.81;46.78;101615.09;5055397;28;20055;-86
2021/03/06 09:23:06;;;;;;;6.43;1.88;;;;;;;6.87;47.05;101606.28;5050158;28;20525;-85
2021/03/06 09:25:36;;;;;;;6.10;1.90;;;;;;;6.91;46.53;101616.72;5035082;28;20049;-85
2021/03/06 09:28:03;;;;;;;6.18;1.60;;;;;;;7.00;46.34;101614.88;5053206;28;20084;-85
2021/03/06 09:30:36;;;;;;;4.55;2.15;;;;;;;7.01;46.08;101606.13;5035319;28;20048;-87
2021/03/06 09:33:03;;;;;;;4.00;2.05;;;;;;;7.09;46.59;101609.50;5058753;28;20127;-85
2021/03/06 09:35:30;;;;;;;4.05;1.90;;;;;;;7.14;46.17;101612.94;5072953;28;20045;-85
2021/03/06 09:38:05;;;;;;;4.85;2.03;;;;;;;7.17;45.95;101615.53;5055578;28;20064;-88
2021/03/06 09:40:38;;;;;;;4.88;1.73;;;;;;;7.23;45.99;101617.19;5073127;28;20048;-84
2021/03/06 09:43:33;;;;;;;4.28;1.73;;;;;;;7.33;46.44;101624.94;5072790;28;20051;-87
2021/03/06 09:46:00;;;;;;;5.47;1.90;;;;;;;7.42;46.28;101623.06;5054893;28;20483;-87
2021/03/06 09:48:27;;;;;;;4.03;2.08;;;;;;;7.52;46.18;101625.56;5055249;28;20044;-87
2021/03/06 09:50:58;;;;;;;5.53;2.38;;;;;;;7.61;45.99;101620.19;5076184;28;20567;-88
2021/03/06 09:53:29;;;;;;;4.03;1.70;;;;;;;7.71;45.62;101627.91;5068452;28;20140;-85
2021/03/06 09:56:05;;;;;;;4.35;1.98;;;;;;;7.79;45.75;101615.56;5056937;28;20510;-86
2021/03/06 09:58:31;;;;;;;4.07;1.80;;;;;;;7.91;46.24;101614.47;5039504;28;20072;-86
2021/03/06 10:01:33;;;;;;;4.03;2.13;;;;;;;7.98;45.75;101615.25;5057018;28;20064;-87
2021/03/06 10:04:17;;;;;;;5.00;1.73;;;;;;;8.07;45.54;101605.50;4996698;28;20049;-86
2021/03/06 10:06:52;;;;;;;5.43;1.40;;;;;;;8.17;44.89;101608.81;5041281;28;20139;-85
2021/03/06 10:09:20;;;;;;;6.18;1.70;;;;;;;8.25;45.29;101611.31;5056766;28;20056;-86
2021/03/06 10:11:49;;;;;;;5.47;1.27;;;;;;;8.30;45.25;101614.72;5038985;28;20526;-87
2021/03/06 10:14:25;;;;;;;4.65;1.90;;;;;;;8.35;44.70;101620.75;5038427;28;20411;-86
2021/03/06 10:16:56;;;;;;;4.20;1.70;;;;;;;8.45;45.06;101623.22;5039031;28;20052;-86
2021/03/06 10:19:25;;;;;;;5.35;1.83;;;;;;;8.53;45.04;101629.25;5039042;28;20059;-86
2021/03/06 10:22:06;;;;;;;4.35;1.85;;;;;;;8.56;44.21;101625.69;5038807;28;20068;-85
2021/03/06 10:24:58;;;;;;;10.48;2.47;;;;;;;8.59;43.71;101620.34;5053991;28;20052;-85
2021/03/06 10:27:35;;;;;;;5.60;1.50;;;;;;;8.62;44.46;101614.19;5039435;28;20049;-85
2021/03/06 10:30:36;;;;;;;6.25;1.58;;;;;;;8.64;43.50;101613.28;5038913;28;20049;-85
2021/03/06 10:33:05;;;;;;;6.20;1.42;;;;;;;8.70;43.75;101610.53;5006767;28;20514;-87
2021/03/06 10:35:44;;;;;;;6.43;1.75;;;;;;;8.75;43.77;101615.72;5055830;28;20053;-87
2021/03/06 10:38:11;;;;;;;3.72;1.40;;;;;;;8.82;44.37;101617.31;5038926;28;20435;-86
2021/03/06 10:40:58;;;;;;;6.00;1.92;;;;;;;8.91;43.99;101620.66;5038538;28;20059;-86
2021/03/06 10:43:31;;;;;;;7.63;1.73;;;;;;;9.02;43.83;101621.31;5045884;28;20105;-87
2021/03/06 10:46:28;;;;;;;2.92;1.10;;;;;;;9.12;43.63;101616.69;5075836;28;20056;-85
2021/03/06 10:48:57;;;;;;;3.67;1.50;;;;;;;9.28;43.80;101616.38;5050441;28;20566;-86
2021/03/06 10:51:38;;;;;;;6.05;1.90;;;;;;;9.38;44.23;101607.41;5075919;28;20054;-86
2021/03/06 10:54:06;;;;;;;3.40;1.60;;;;;;;9.51;43.78;101614.13;5057172;28;20048;-87
2021/03/06 10:56:33;;;;;;;3.80;1.50;;;;;;;9.65;43.53;101610.31;5058402;28;20063;-86
2021/03/06 10:59:00;;;;;;;8.00;2.70;;;;;;;9.77;43.53;101607.38;5057926;28;20418;-87
2021/03/06 11:01:47;;;;;;;8.30;4.00;;;;;;;9.88;43.04;101608.91;5057790;28;20058;-87
2021/03/06 11:04:27;;;;;;;5.85;2.92;;;;;;;10.01;42.77;101609.44;5067418;28;20495;-87
2021/03/06 11:07:05;;;;;;;6.75;2.80;;;;;;;10.18;43.18;101609.06;5064351;28;20049;-87
2021/03/06 11:09:34;;;;;;;5.72;1.98;;;;;;;10.37;43.79;101603.31;5037844;28;20057;-87
2021/03/06 11:12:21;;;;;;;3.92;1.80;;;;;;;10.53;43.19;101599.38;5037946;28;20049;-87
2021/03/06 11:15:08;;;;;;;4.68;1.70;;;;;;;10.80;43.01;101596.00;5044566;28;20415;-87
2021/03/06 11:17:34;;;;;;;4.57;1.48;;;;;;;11.10;43.78;101592.56;5053865;28;20056;-87
2021/03/06 11:20:03;;;;;;;3.78;1.58;;;;;;;11.35;43.75;101584.75;5055597;28;20392;-87
2021/03/06 11:22:29;;;;;;;7.10;2.10;;;;;;;11.60;42.95;101587.47;5037719;28;20466;-87
2021/03/06 11:24:55;;;;;;;5.28;1.90;;;;;;;11.81;42.19;101587.72;5063089;28;20059;-87
2021/03/06 11:27:22;;;;;;;3.50;1.60;;;;;;;11.98;42.30;101584.53;5075296;28;20392;-87
2021/03/06 11:29:48;;;;;;;6.70;2.28;;;;;;;12.11;41.86;101585.00;5057499;28;20059;-86
2021/03/06 11:32:14;;;;;;;6.57;1.77;;;;;;;12.20;41.38;101575.03;5075080;28;20388;-87
2021/03/06 11:34:40;;;;;;;2.92;1.90;;;;;;;12.28;40.82;101578.28;5054204;28;20051;-87
2021/03/06 11:37:06;;;;;;;4.20;2.15;;;;;;;12.37;41.48;101571.78;5057415;28;20061;-86
2021/03/06 11:39:32;;;;;;;5.32;1.80;;;;;;;12.50;41.65;101565.19;5075213;28;20083;-87
2021/03/06 11:41:58;;;;;;;3.28;1.48;;;;;;;12.69;41.74;101561.00;5074906;28;20048;-87
2021/03/06 11:44:25;;;;;;;2.58;1.10;;;;;;;12.97;41.64;101562.63;5072491;28;20052;-87
2021/03/06 11:46:51;;;;;;;2.97;1.60;;;;;;;13.37;42.56;101552.25;5036990;28;20049;-87
2021/03/06 11:49:17;;;;;;;1.70;1.30;;;;;;;13.93;42.93;101548.25;5037177;28;20052;-87
2021/03/06 11:51:43;;;;;;;2.97;1.55;;;;;;;14.59;42.08;101554.22;5037031;28;20055;-87